createdAt,value
2018-12-26T03:40:52.235Z,1.00
2018-12-26T03:43:22.685Z,1.00
2018-12-26T03:45:52.474Z,1.00
2018-12-26T03:48:22.687Z,1.00
2018-12-26T03:50:51.585Z,1.00
2018-12-26T03:53:20.475Z,29.30
2018-12-26T03:55:49.366Z,99.90
2018-12-26T03:58:18.258Z,1.00
2018-12-26T04:00:47.147Z,1.00
2018-12-26T04:03:16.144Z,34.60
2018-12-26T04:05:45.137Z,99.90
2018-12-26T04:08:14.742Z,99.90
2018-12-26T04:10:43.544Z,99.90
2018-12-26T04:13:12.425Z,99.90
2018-12-26T04:15:41.311Z,99.90
2018-12-26T04:18:10.207Z,99.90
2018-12-26T04:20:39.709Z,99.90
2018-12-26T04:23:09.520Z,99.90
2018-12-26T04:25:39.712Z,99.90
2018-12-26T04:28:08.631Z,99.90
2018-12-26T04:30:37.629Z,99.90
2018-12-26T04:33:06.515Z,99.90
2018-12-26T04:35:35.406Z,99.90
2018-12-26T04:38:04.303Z,99.90
2018-12-26T04:40:33.290Z,99.90
2018-12-26T04:43:02.283Z,99.90
2018-12-26T04:45:31.176Z,99.90
2018-12-26T04:48:00.066Z,99.90
2018-12-26T04:50:29.057Z,99.90
2018-12-26T04:52:57.948Z,99.90
2018-12-26T04:55:26.839Z,99.90
2018-12-26T04:57:55.831Z,99.90
2018-12-26T05:00:24.722Z,99.90
2018-12-26T05:02:53.614Z,99.90
2018-12-26T05:05:22.605Z,99.90
2018-12-26T05:07:51.599Z,99.90
2018-12-26T05:10:20.490Z,99.90
2018-12-26T05:12:50.507Z,99.90
2018-12-26T05:15:19.398Z,99.90
2018-12-26T05:17:48.789Z,99.90
2018-12-26T05:20:18.298Z,99.90
2018-12-26T05:22:47.197Z,99.90
2018-12-26T05:25:16.197Z,99.90
2018-12-26T05:27:45.184Z,99.90
2018-12-26T05:30:14.072Z,99.90
2018-12-26T05:32:42.965Z,99.90
2018-12-26T05:35:11.956Z,99.90
2018-12-26T05:37:40.949Z,99.90
2018-12-26T05:40:09.844Z,99.90
2018-12-26T05:42:38.833Z,99.90
2018-12-26T05:45:07.827Z,99.90
2018-12-26T05:47:36.722Z,99.90
2018-12-26T05:50:05.565Z,99.90
2018-12-26T05:52:34.502Z,99.90
2018-12-26T05:55:03.493Z,99.90
2018-12-26T05:57:32.384Z,99.90
2018-12-26T06:00:01.376Z,99.90
2018-12-26T06:02:30.371Z,99.90
2018-12-26T06:04:59.264Z,99.90
2018-12-26T06:07:28.152Z,99.90
2018-12-26T06:09:57.043Z,99.90
2018-12-26T06:12:25.934Z,99.90
2018-12-26T06:14:54.831Z,99.90
2018-12-26T06:17:23.715Z,99.80
2018-12-26T06:19:52.605Z,99.90
2018-12-26T06:22:21.490Z,99.90
2018-12-26T06:24:50.490Z,99.50
2018-12-26T06:27:20.277Z,99.90
2018-12-26T06:29:49.805Z,99.90
2018-12-26T06:32:18.800Z,99.90
2018-12-26T06:34:47.669Z,99.90
2018-12-26T06:37:16.579Z,99.90
2018-12-26T06:39:45.470Z,99.90
2018-12-26T06:42:14.361Z,99.90
2018-12-26T06:44:43.355Z,99.90
2018-12-26T06:47:12.347Z,99.90
2018-12-26T06:49:41.231Z,99.90
2018-12-26T06:52:10.133Z,99.60
2018-12-26T06:54:39.736Z,99.90
2018-12-26T06:57:08.626Z,99.90
2018-12-26T06:59:37.518Z,99.90
2018-12-26T07:02:06.513Z,99.90
2018-12-26T07:04:35.401Z,99.90
2018-12-26T07:07:04.296Z,99.90
2018-12-26T07:09:33.285Z,99.90
2018-12-26T07:12:02.176Z,99.90
2018-12-26T07:14:31.067Z,99.90
2018-12-26T07:16:59.961Z,99.90
2018-12-26T07:19:28.847Z,99.90
2018-12-26T07:21:57.738Z,99.90
2018-12-26T07:24:26.731Z,99.90
2018-12-26T07:26:55.608Z,99.90
2018-12-26T07:29:24.512Z,99.90
2018-12-26T07:31:53.510Z,99.90
2018-12-26T07:34:22.500Z,98.30
2018-12-26T07:36:51.391Z,99.90
2018-12-26T07:39:20.382Z,97.10
2018-12-26T07:41:49.379Z,99.90
2018-12-26T07:44:18.266Z,99.90
2018-12-26T07:46:47.157Z,98.60
2018-12-26T07:49:16.048Z,98.80
2018-12-26T07:51:44.933Z,95.60
2018-12-26T07:54:13.932Z,31.00
2018-12-26T07:56:42.786Z,1.00
2018-12-26T07:59:11.713Z,99.90
2018-12-26T08:01:40.706Z,99.90
2018-12-26T08:04:09.598Z,99.90
2018-12-26T08:06:38.453Z,99.90
2018-12-26T08:09:07.378Z,44.80
2018-12-26T08:11:36.263Z,96.70
2018-12-26T08:14:05.160Z,16.80
2018-12-26T08:16:34.051Z,1.00
2018-12-26T08:19:02.942Z,1.00
2018-12-26T08:21:31.843Z,1.00
2018-12-26T08:28:57.895Z,1.00
2018-12-26T08:38:52.334Z,1.00
2018-12-26T08:41:21.217Z,1.00
2018-12-26T08:43:50.108Z,1.00
2018-12-26T08:46:18.998Z,1.00
2018-12-26T08:48:47.889Z,99.90
2018-12-26T08:51:16.865Z,1.00
2018-12-26T08:53:45.775Z,1.00
2018-12-26T08:56:14.664Z,99.90
2018-12-26T08:58:43.554Z,1.00
2018-12-26T09:01:12.547Z,1.00
2018-12-26T09:03:41.443Z,1.00
2018-12-26T09:06:10.431Z,41.50
2018-12-26T09:08:39.427Z,38.50
2018-12-26T09:11:08.315Z,1.00
2018-12-26T09:13:37.117Z,1.00
2018-12-26T09:16:06.096Z,1.00
2018-12-26T09:18:35.295Z,1.00
2018-12-26T09:21:04.186Z,1.00
2018-12-26T09:23:33.184Z,1.00
2018-12-26T09:26:02.070Z,1.00
2018-12-26T09:28:31.063Z,1.00
2018-12-26T09:31:00.053Z,1.00
2018-12-26T09:33:28.944Z,1.00
2018-12-26T09:35:57.938Z,99.90
2018-12-26T09:38:26.934Z,99.90
2018-12-26T09:40:55.910Z,99.90
2018-12-26T09:43:25.429Z,1.00
2018-12-26T09:45:54.424Z,1.00
2018-12-26T09:48:23.307Z,1.00
2018-12-26T09:50:52.206Z,99.90
2018-12-26T09:53:21.094Z,27.90
2018-12-26T09:55:49.985Z,99.90
2018-12-26T09:58:18.875Z,99.90
2018-12-26T10:00:47.769Z,1.00
2018-12-26T10:03:16.657Z,99.90
2018-12-26T10:05:45.548Z,99.90
2018-12-26T10:08:14.438Z,99.90
2018-12-26T10:10:43.329Z,99.90
2018-12-26T10:13:12.220Z,99.90
2018-12-26T10:15:41.105Z,99.90
2018-12-26T10:18:10.105Z,99.90
2018-12-26T10:20:38.995Z,99.90
2018-12-26T10:23:07.987Z,1.00
2018-12-26T10:25:36.981Z,1.00
2018-12-26T10:28:05.872Z,1.00
2018-12-26T10:30:34.757Z,1.00
2018-12-26T10:33:03.654Z,1.00
2018-12-26T10:35:32.542Z,1.00
2018-12-26T10:38:01.434Z,1.00
2018-12-26T10:40:30.320Z,1.00
2018-12-26T10:42:59.216Z,1.00
2018-12-26T10:45:28.208Z,99.90
2018-12-26T10:47:57.203Z,99.90
2018-12-26T10:50:26.092Z,99.90
2018-12-26T11:00:21.143Z,99.90
2018-12-26T11:02:50.038Z,33.40
2018-12-26T11:05:18.924Z,99.90
2018-12-26T11:07:47.815Z,99.90
2018-12-26T11:10:16.705Z,99.90
2018-12-26T11:12:45.605Z,1.00
2018-12-26T11:15:14.590Z,99.90
2018-12-26T11:17:45.272Z,99.90
2018-12-26T11:20:15.317Z,99.90
2018-12-26T11:22:44.234Z,99.90
2018-12-26T11:25:13.227Z,99.90
2018-12-26T11:27:42.115Z,99.90
2018-12-26T11:30:12.338Z,99.90
2018-12-26T11:32:41.331Z,99.90
2018-12-26T11:35:10.220Z,99.90
2018-12-26T11:37:39.931Z,21.80
2018-12-26T11:40:11.499Z,1.00
2018-12-26T11:42:41.848Z,1.00
2018-12-26T11:45:10.700Z,1.00
2018-12-26T11:47:39.591Z,11.50
2018-12-26T11:50:09.403Z,16.10
2018-12-26T11:52:38.298Z,34.20
2018-12-26T11:55:07.185Z,1.00
2018-12-26T11:57:36.957Z,19.00
2018-12-26T12:00:09.009Z,9.90
2018-12-26T12:02:37.955Z,33.80
2018-12-26T12:05:06.843Z,45.90
2018-12-26T12:07:35.734Z,17.30
2018-12-26T12:10:06.532Z,43.10
2018-12-26T12:12:35.462Z,27.60
2018-12-26T12:15:05.393Z,15.40
2018-12-26T12:17:34.266Z,30.80
2018-12-26T12:20:03.967Z,39.80
2018-12-26T12:22:32.867Z,21.00
2018-12-26T12:25:01.758Z,18.70
2018-12-26T12:27:30.751Z,36.50
2018-12-26T12:29:59.744Z,25.80
2018-12-26T12:32:28.634Z,99.90
2018-12-26T12:34:57.525Z,84.10
2018-12-26T12:37:26.521Z,55.90
2018-12-26T12:39:55.512Z,99.90
2018-12-26T12:42:24.402Z,99.90
2018-12-26T12:44:53.395Z,99.90
2018-12-26T12:47:22.392Z,99.90
2018-12-26T12:49:51.279Z,1.00
2018-12-26T12:52:20.170Z,1.00
2018-12-26T12:54:49.061Z,1.00
2018-12-26T12:57:17.951Z,99.90
2018-12-26T12:59:46.842Z,99.90
2018-12-26T13:02:17.668Z,1.00
2018-12-26T13:04:46.977Z,1.00
2018-12-26T13:07:15.869Z,1.00
2018-12-26T13:09:44.760Z,99.90
2018-12-26T13:12:13.650Z,99.90
2018-12-26T13:14:42.541Z,1.00
2018-12-26T13:17:11.431Z,1.00
2018-12-26T13:19:40.322Z,99.90
2018-12-26T13:22:09.214Z,99.90
2018-12-26T13:24:38.103Z,1.00
2018-12-26T13:27:06.994Z,4.80
2018-12-26T13:29:35.887Z,99.90
2018-12-26T13:32:04.777Z,99.90
2018-12-26T13:34:34.403Z,99.90
2018-12-26T13:37:03.273Z,99.90
2018-12-26T13:39:32.165Z,99.90
2018-12-26T13:42:01.060Z,99.90
2018-12-26T13:44:30.051Z,99.90
2018-12-26T13:46:58.933Z,1.00
2018-12-26T13:49:27.832Z,99.90
